Time;durP1;ratioP1;P1;durP2;ratioP2;P2;SDS_P1;SDS_P2;PMS_P1;PMS_P2;Temp;Humidity;BMP_temperature;BMP_pressure;BME280_temperature;BME280_humidity;BME280_pressure;Samples;Min_cycle;Max_cycle;Signal;HPM_P1;HPM_P2
2022/08/27 00:00:43;;;;;;;4.40;1.60;;;26.20;55.30;;;;;;5097799;28;20468;-83
2022/08/27 00:03:11;;;;;;;3.23;1.30;;;26.20;55.10;;;;;;5098926;28;20515;-81
2022/08/27 00:05:39;;;;;;;3.07;1.37;;;26.20;55.60;;;;;;5097221;28;20492;-80
2022/08/27 00:08:07;;;;;;;4.47;1.73;;;26.20;55.40;;;;;;5098217;28;20447;-82
2022/08/27 00:10:37;;;;;;;6.90;2.00;;;26.20;55.50;;;;;;5110119;28;20538;-83
2022/08/27 00:13:05;;;;;;;6.20;1.50;;;26.20;55.00;;;;;;5118274;28;20449;-82
2022/08/27 00:15:33;;;;;;;5.23;1.20;;;26.10;54.70;;;;;;5119126;28;20563;-81
2022/08/27 00:18:01;;;;;;;4.20;1.37;;;25.70;55.60;;;;;;5118356;28;20475;-82
2022/08/27 00:20:30;;;;;;;4.73;1.40;;;25.90;56.20;;;;;;5117930;28;20422;-81
2022/08/27 00:22:58;;;;;;;4.43;1.30;;;25.70;55.40;;;;;;5118010;28;20444;-81
2022/08/27 00:25:26;;;;;;;2.80;1.20;;;25.20;57.20;;;;;;5118038;28;20484;-82
2022/08/27 00:27:55;;;;;;;5.60;1.63;;;25.40;57.60;;;;;;5111655;28;20471;-83
2022/08/27 00:30:23;;;;;;;4.90;1.73;;;25.60;56.30;;;;;;5116892;27;20482;-80
2022/08/27 00:32:51;;;;;;;5.47;1.60;;;25.70;55.40;;;;;;5118270;28;20414;-81
2022/08/27 00:46:07;;;;;;;8.53;1.30;;;25.40;56.40;;;;;;5129605;27;20588;-81
2022/08/27 00:48:35;;;;;;;7.20;1.73;;;24.70;58.60;;;;;;5115049;28;20836;-81
2022/08/27 00:51:04;;;;;;;6.20;1.80;;;25.10;57.50;;;;;;5113931;28;20457;-82
2022/08/27 00:53:32;;;;;;;3.73;1.43;;;25.40;56.00;;;;;;5115485;28;20530;-80
2022/08/27 00:56:03;;;;;;;2.17;1.60;;;25.40;56.00;;;;;;5114812;28;20460;-81
2022/08/27 00:58:32;;;;;;;8.63;1.80;;;25.50;56.20;;;;;;5116103;28;20422;-80
2022/08/27 01:01:01;;;;;;;3.83;1.57;;;25.40;56.40;;;;;;5114184;28;20448;-81
2022/08/27 01:03:29;;;;;;;2.90;1.43;;;25.40;56.50;;;;;;5107074;28;20528;-80
2022/08/27 01:05:58;;;;;;;6.73;1.50;;;25.50;55.60;;;;;;5115686;27;20488;-80
2022/08/27 01:08:29;;;;;;;7.37;2.10;;;25.00;56.40;;;;;;5114767;27;20443;-81
2022/08/27 01:10:58;;;;;;;4.70;1.43;;;25.00;57.80;;;;;;5114754;27;20467;-81
2022/08/27 01:13:28;;;;;;;6.40;1.30;;;25.20;57.20;;;;;;5113972;27;20422;-81
2022/08/27 01:16:20;;;;;;;5.63;1.60;;;25.40;56.70;;;;;;5114284;27;20862;-81
2022/08/27 01:18:49;;;;;;;9.30;2.00;;;25.50;56.40;;;;;;5114350;27;20531;-80
2022/08/27 01:21:26;;;;;;;5.83;1.70;;;25.50;55.40;;;;;;5108006;27;20423;-80
2022/08/27 01:23:56;;;;;;;2.97;1.47;;;25.30;56.10;;;;;;5114075;27;20526;-80
2022/08/27 01:26:26;;;;;;;3.97;1.50;;;25.30;56.90;;;;;;5113203;28;20519;-80
2022/08/27 01:28:54;;;;;;;6.10;2.30;;;25.40;56.00;;;;;;5113009;28;20444;-80
2022/08/27 01:31:22;;;;;;;7.60;1.97;;;25.40;56.40;;;;;;5112639;28;20445;-81
2022/08/27 01:33:54;;;;;;;6.23;3.47;;;25.10;56.40;;;;;;5113084;28;20454;-81
2022/08/27 01:36:22;;;;;;;3.77;1.67;;;25.20;56.70;;;;;;5112507;28;20496;-82
2022/08/27 01:38:50;;;;;;;9.47;1.97;;;25.40;57.20;;;;;;5106188;28;20444;-82
2022/08/27 01:41:19;;;;;;;8.07;1.70;;;25.10;56.10;;;;;;5112623;27;20454;-82
2022/08/27 01:43:49;;;;;;;4.07;1.60;;;25.00;57.10;;;;;;5111943;27;20426;-81
2022/08/27 01:46:21;;;;;;;8.43;1.67;;;24.80;57.80;;;;;;5102496;27;20494;-81
2022/08/27 01:48:49;;;;;;;2.03;1.30;;;24.70;58.00;;;;;;5098612;28;20434;-81
2022/08/27 01:51:17;;;;;;;3.00;1.40;;;25.00;57.60;;;;;;5098511;28;20443;-81
2022/08/27 01:53:45;;;;;;;2.87;1.40;;;25.20;57.10;;;;;;5098603;28;20475;-81
2022/08/27 01:56:14;;;;;;;4.40;1.40;;;25.40;56.50;;;;;;5098883;28;20440;-80
2022/08/27 01:58:44;;;;;;;5.83;1.53;;;25.20;56.00;;;;;;5078390;28;21015;-81
2022/08/27 02:01:15;;;;;;;5.97;1.67;;;25.30;57.00;;;;;;5078987;28;20447;-81
2022/08/27 02:03:43;;;;;;;6.07;1.50;;;24.90;56.60;;;;;;5079222;28;20484;-81
2022/08/27 02:06:11;;;;;;;5.10;1.80;;;24.80;57.50;;;;;;5078571;28;20439;-80
2022/08/27 02:08:39;;;;;;;6.37;1.73;;;24.90;57.10;;;;;;5078683;28;20512;-81
2022/08/27 02:11:08;;;;;;;6.47;1.70;;;24.90;56.10;;;;;;5078838;28;20507;-81
2022/08/27 02:13:36;;;;;;;7.60;1.43;;;24.60;57.10;;;;;;5077986;28;21169;-81
2022/08/27 02:16:04;;;;;;;4.80;1.73;;;24.60;58.00;;;;;;5093697;28;20560;-80
2022/08/27 02:18:35;;;;;;;3.63;1.30;;;25.00;57.00;;;;;;5099404;28;20423;-80
2022/08/27 02:21:04;;;;;;;5.40;2.00;;;25.10;56.60;;;;;;5098584;28;20421;-80
2022/08/27 02:23:32;;;;;;;4.67;1.80;;;24.90;56.80;;;;;;5098713;28;20458;-79
2022/08/27 02:26:00;;;;;;;7.50;2.10;;;24.60;56.40;;;;;;5098664;28;20463;-81
2022/08/27 02:28:28;;;;;;;4.30;1.70;;;24.90;56.40;;;;;;5106064;28;20444;-80
2022/08/27 02:30:56;;;;;;;5.03;1.40;;;24.90;57.50;;;;;;5095549;28;20480;-79
2022/08/27 02:33:25;;;;;;;8.30;1.63;;;25.00;56.50;;;;;;5101135;28;20418;-80
2022/08/27 02:35:54;;;;;;;2.87;1.30;;;25.00;56.00;;;;;;5099174;28;20496;-81
2022/08/27 02:38:23;;;;;;;3.77;1.33;;;24.80;56.70;;;;;;5099081;28;20820;-80
2022/08/27 02:40:53;;;;;;;3.20;1.57;;;24.70;57.10;;;;;;5101432;28;20513;-79
2022/08/27 02:43:21;;;;;;;4.27;1.67;;;24.90;56.10;;;;;;5101004;28;20524;-80
2022/08/27 02:45:52;;;;;;;9.60;1.57;;;24.70;57.10;;;;;;5097148;28;20465;-80
2022/08/27 02:48:20;;;;;;;2.70;1.40;;;24.80;57.40;;;;;;5097257;28;20419;-81
2022/08/27 02:50:48;;;;;;;3.87;1.63;;;24.90;56.30;;;;;;5097681;28;20479;-80
2022/08/27 02:53:18;;;;;;;4.73;1.40;;;24.60;57.50;;;;;;5098540;28;20444;-80
2022/08/27 02:55:46;;;;;;;4.30;1.70;;;24.00;58.00;;;;;;5097068;28;20500;-80
2022/08/27 02:58:15;;;;;;;7.57;1.67;;;24.20;58.80;;;;;;5096944;28;20454;-81
2022/08/27 03:00:43;;;;;;;6.70;1.60;;;24.30;57.40;;;;;;5097633;28;20501;-81
2022/08/27 03:03:11;;;;;;;3.37;1.60;;;24.50;58.50;;;;;;5092520;28;20516;-80
2022/08/27 03:05:39;;;;;;;7.07;1.60;;;24.70;57.00;;;;;;5097406;28;20518;-81
2022/08/27 03:08:08;;;;;;;2.70;1.60;;;24.80;57.00;;;;;;5097396;28;20445;-80
2022/08/27 03:10:38;;;;;;;1.83;1.30;;;24.30;57.80;;;;;;5096860;28;20444;-80
2022/08/27 03:13:06;;;;;;;6.33;1.80;;;24.60;58.20;;;;;;5097326;28;20450;-81
2022/08/27 03:15:35;;;;;;;4.13;1.83;;;24.80;57.10;;;;;;5096713;28;20474;-81
2022/08/27 03:18:21;;;;;;;7.50;4.53;;;24.80;57.10;;;;;;5096537;28;20533;-80
2022/08/27 03:20:48;;;;;;;38.97;24.53;;;24.40;58.00;;;;;;5079953;28;20434;-80
2022/08/27 03:23:17;;;;;;;3.43;1.90;;;24.30;58.50;;;;;;5076476;28;20487;-81
2022/08/27 03:25:50;;;;;;;8.80;2.80;;;23.90;58.20;;;;;;5076849;28;20472;-80
2022/08/27 03:28:18;;;;;;;6.73;2.00;;;24.00;59.40;;;;;;5076521;28;20491;-80
2022/08/27 03:30:50;;;;;;;6.50;1.60;;;23.60;59.70;;;;;;5076643;28;20461;-79
2022/08/27 03:33:19;;;;;;;3.50;1.73;;;23.80;60.20;;;;;;5076411;28;20446;-79
2022/08/27 03:35:47;;;;;;;6.70;1.97;;;24.20;59.40;;;;;;5076793;28;20527;-80
2022/08/27 03:38:18;;;;;;;5.70;1.73;;;24.40;58.50;;;;;;5083002;28;20539;-80
2022/08/27 03:40:48;;;;;;;3.93;1.90;;;23.90;58.10;;;;;;5097061;28;20403;-80
2022/08/27 03:43:16;;;;;;;3.87;1.60;;;23.60;59.80;;;;;;5096651;28;20502;-80
2022/08/27 03:45:44;;;;;;;3.77;1.80;;;23.40;60.00;;;;;;5096606;28;20472;-81
2022/08/27 03:48:28;;;;;;;4.20;1.70;;;23.50;61.20;;;;;;5097228;28;20419;-81
2022/08/27 03:50:56;;;;;;;4.47;2.10;;;23.50;60.50;;;;;;5096661;28;20437;-80
2022/08/27 03:53:24;;;;;;;7.70;1.60;;;23.40;61.40;;;;;;5097425;28;20446;-80
2022/08/27 03:55:54;;;;;;;8.43;2.23;;;23.20;61.60;;;;;;5096006;28;20469;-80
2022/08/27 03:58:22;;;;;;;8.80;2.10;;;23.00;62.40;;;;;;5076898;28;20461;-81
2022/08/27 04:00:50;;;;;;;6.77;1.67;;;23.20;62.90;;;;;;5096394;28;20445;-82
2022/08/27 04:03:18;;;;;;;3.47;1.90;;;23.20;61.10;;;;;;5096258;28;20533;-82
2022/08/27 04:05:46;;;;;;;6.40;1.50;;;23.60;60.90;;;;;;5096273;28;20556;-81
2022/08/27 04:08:14;;;;;;;4.70;1.60;;;23.50;60.90;;;;;;5096377;28;20524;-81
2022/08/27 04:10:42;;;;;;;11.00;1.70;;;23.50;61.20;;;;;;5096304;28;20475;-81
2022/08/27 04:13:11;;;;;;;2.50;1.50;;;23.70;60.60;;;;;;5088123;28;20476;-82
2022/08/27 04:15:43;;;;;;;5.40;1.80;;;23.80;60.40;;;;;;5096088;28;20482;-81
2022/08/27 04:18:13;;;;;;;7.03;1.80;;;23.90;60.30;;;;;;5095974;28;20505;-81
2022/08/27 04:20:41;;;;;;;5.17;1.80;;;24.00;60.30;;;;;;5097861;28;20434;-79
2022/08/27 04:23:09;;;;;;;6.80;2.27;;;24.30;60.00;;;;;;5097381;28;20506;-80
2022/08/27 04:25:39;;;;;;;7.20;1.80;;;24.50;58.70;;;;;;5096056;28;20507;-80
2022/08/27 04:28:07;;;;;;;4.97;1.53;;;24.50;58.80;;;;;;5096062;28;20491;-80
2022/08/27 04:30:38;;;;;;;6.63;1.67;;;24.50;58.60;;;;;;5076786;28;20530;-80
2022/08/27 04:33:06;;;;;;;4.70;1.70;;;24.30;59.10;;;;;;5076721;28;20503;-80
2022/08/27 04:35:34;;;;;;;4.60;1.77;;;24.20;59.40;;;;;;5076017;28;20505;-81
2022/08/27 04:38:02;;;;;;;9.47;2.13;;;24.20;59.20;;;;;;5076752;28;20521;-80
2022/08/27 04:43:15;;;;;;;8.67;2.00;;;24.10;59.30;;;;;;5078784;28;20467;-80
2022/08/27 04:45:46;;;;;;;5.90;1.87;;;24.20;59.80;;;;;;5077205;28;20456;-80
2022/08/27 04:48:15;;;;;;;7.13;2.33;;;24.40;59.00;;;;;;5077497;28;20492;-80
2022/08/27 04:50:44;;;;;;;8.07;1.80;;;24.50;59.00;;;;;;5088728;28;20531;-80
2022/08/27 04:53:12;;;;;;;3.70;1.80;;;24.60;59.00;;;;;;5099534;28;20411;-80
2022/08/27 04:55:43;;;;;;;2.00;1.80;;;24.60;58.50;;;;;;5098944;28;20568;-80
2022/08/27 04:58:11;;;;;;;5.13;2.10;;;24.70;58.50;;;;;;5098720;28;20498;-81
2022/08/27 05:00:42;;;;;;;4.73;1.80;;;24.50;57.80;;;;;;5096891;28;20873;-80
2022/08/27 05:03:12;;;;;;;4.27;1.93;;;24.40;59.00;;;;;;5096048;28;20443;-80
2022/08/27 05:05:41;;;;;;;5.40;2.00;;;24.50;58.90;;;;;;5086829;28;20441;-80
2022/08/27 05:08:11;;;;;;;5.87;2.03;;;24.50;58.60;;;;;;5095903;28;20448;-81
2022/08/27 05:10:41;;;;;;;6.17;2.23;;;24.50;58.50;;;;;;5100171;28;20785;-80
2022/08/27 05:13:09;;;;;;;6.13;2.00;;;24.40;58.80;;;;;;5099458;28;20535;-82
2022/08/27 05:15:37;;;;;;;6.30;2.17;;;24.30;58.70;;;;;;5099062;28;20529;-79
2022/08/27 05:18:05;;;;;;;3.40;1.80;;;24.40;59.20;;;;;;5100784;28;20422;-79
2022/08/27 05:20:41;;;;;;;4.70;2.03;;;24.50;58.60;;;;;;5101055;28;20441;-79
2022/08/27 05:23:10;;;;;;;4.67;2.17;;;24.50;58.70;;;;;;5102994;28;20427;-79
2022/08/27 05:25:38;;;;;;;8.40;2.13;;;24.60;58.10;;;;;;5102646;28;20442;-82
2022/08/27 05:28:06;;;;;;;6.40;2.07;;;24.40;58.10;;;;;;5102850;28;20472;-81
2022/08/27 05:30:38;;;;;;;3.83;1.53;;;24.20;58.80;;;;;;5103766;28;20423;-78
2022/08/27 05:33:06;;;;;;;5.40;1.90;;;24.20;58.60;;;;;;5100751;28;20548;-81
2022/08/27 05:35:39;;;;;;;3.33;1.30;;;24.10;59.40;;;;;;5099141;28;20543;-81
2022/08/27 05:38:07;;;;;;;7.50;2.00;;;24.20;58.10;;;;;;5099420;28;20498;-80
2022/08/27 05:40:36;;;;;;;3.23;1.57;;;24.30;59.00;;;;;;5098578;28;20432;-79
2022/08/27 05:43:04;;;;;;;5.70;1.80;;;24.20;59.20;;;;;;5088244;28;20470;-79
2022/08/27 05:45:32;;;;;;;3.87;1.60;;;24.40;58.50;;;;;;5109563;28;20478;-80
2022/08/27 05:48:00;;;;;;;10.73;2.30;;;24.40;58.20;;;;;;5105566;28;20540;-80
2022/08/27 05:50:30;;;;;;;6.33;2.17;;;24.50;58.00;;;;;;5101201;28;20528;-79
2022/08/27 05:53:00;;;;;;;5.43;1.80;;;24.30;59.30;;;;;;5100929;28;20494;-80
2022/08/27 05:55:28;;;;;;;3.50;1.37;;;24.00;58.10;;;;;;5100820;28;20547;-80
2022/08/27 05:57:56;;;;;;;4.50;1.70;;;23.90;58.80;;;;;;5095915;28;20511;-80
2022/08/27 06:03:10;;;;;;;5.87;1.80;;;24.10;59.70;;;;;;5099178;28;20440;-79
2022/08/27 06:05:38;;;;;;;2.97;1.57;;;24.10;59.40;;;;;;5099548;28;20524;-79
2022/08/27 06:08:08;;;;;;;4.83;2.20;;;24.20;58.70;;;;;;5099541;28;20443;-80
2022/08/27 06:10:39;;;;;;;3.60;1.60;;;24.50;58.40;;;;;;5098901;28;20452;-80
2022/08/27 06:13:08;;;;;;;7.13;2.03;;;24.50;57.30;;;;;;5099157;28;20476;-80
2022/08/27 06:15:36;;;;;;;6.50;1.90;;;24.70;57.60;;;;;;5079802;28;20527;-80
2022/08/27 06:18:04;;;;;;;10.33;2.00;;;24.70;57.50;;;;;;5093043;28;20475;-80
2022/08/27 06:20:32;;;;;;;3.80;1.77;;;24.70;57.00;;;;;;5099199;28;20508;-80
2022/08/27 06:23:00;;;;;;;13.40;2.17;;;24.80;57.70;;;;;;5099265;28;20523;-80
2022/08/27 06:25:31;;;;;;;6.20;1.30;;;25.10;57.90;;;;;;5101017;28;20507;-81
2022/08/27 06:28:02;;;;;;;5.90;1.60;;;25.50;57.20;;;;;;5099320;28;20468;-83
2022/08/27 06:30:33;;;;;;;5.13;1.40;;;26.00;56.00;;;;;;5101523;28;20423;-81
2022/08/27 06:33:01;;;;;;;3.53;1.50;;;26.30;54.80;;;;;;5077975;28;20949;-80
2022/08/27 06:35:29;;;;;;;2.23;1.33;;;26.60;53.90;;;;;;5082875;28;20536;-81
2022/08/27 06:38:00;;;;;;;6.70;1.43;;;26.80;53.30;;;;;;5102412;28;20489;-80
2022/08/27 06:40:30;;;;;;;5.90;1.57;;;27.00;52.70;;;;;;5099133;28;20442;-80
2022/08/27 06:42:58;;;;;;;3.67;1.40;;;27.10;52.30;;;;;;5096811;28;20430;-81
2022/08/27 06:45:26;;;;;;;2.40;1.20;;;27.30;52.00;;;;;;5097059;28;20482;-81
2022/08/27 06:47:54;;;;;;;6.07;1.63;;;27.40;51.60;;;;;;5094814;28;20779;-81
2022/08/27 06:50:22;;;;;;;7.27;1.60;;;27.50;51.40;;;;;;5095664;28;20483;-81
2022/08/27 06:52:54;;;;;;;3.67;1.37;;;27.60;51.10;;;;;;5096821;28;20416;-81
2022/08/27 06:55:21;;;;;;;4.20;1.70;;;27.70;50.60;;;;;;5096430;28;20470;-81
2022/08/27 06:57:51;;;;;;;6.13;1.87;;;27.80;50.30;;;;;;5095630;28;20482;-81
2022/08/27 07:00:19;;;;;;;4.97;1.40;;;27.90;50.00;;;;;;5095345;28;20404;-81
2022/08/27 07:02:48;;;;;;;5.87;1.53;;;28.00;49.90;;;;;;5096561;28;20532;-81
2022/08/27 07:05:17;;;;;;;4.93;1.40;;;28.10;49.60;;;;;;5092842;28;20506;-81
2022/08/27 07:07:45;;;;;;;3.03;1.67;;;28.10;49.40;;;;;;5088184;28;20532;-81
2022/08/27 07:10:15;;;;;;;4.93;1.93;;;28.20;49.30;;;;;;5096304;28;20531;-82
2022/08/27 07:12:43;;;;;;;4.17;1.40;;;28.20;49.10;;;;;;5095989;28;20510;-81
2022/08/27 07:15:13;;;;;;;6.53;2.00;;;28.30;48.80;;;;;;5096051;28;20466;-81
2022/08/27 07:17:43;;;;;;;5.83;1.47;;;28.30;48.60;;;;;;5096159;28;20476;-81
2022/08/27 07:20:11;;;;;;;7.80;2.13;;;28.40;48.50;;;;;;5095693;28;20540;-81
2022/08/27 07:22:39;;;;;;;4.23;1.40;;;28.40;48.30;;;;;;5094945;28;20502;-80
2022/08/27 07:25:11;;;;;;;4.13;1.70;;;28.40;48.40;;;;;;5094083;28;20498;-81
2022/08/27 07:27:39;;;;;;;5.87;1.60;;;28.40;48.20;;;;;;5095343;28;20943;-80
2022/08/27 07:30:09;;;;;;;3.57;1.47;;;28.40;48.00;;;;;;5098705;28;20475;-81
2022/08/27 07:32:38;;;;;;;2.80;1.40;;;28.40;47.90;;;;;;5107163;28;20461;-81
2022/08/27 07:35:08;;;;;;;4.00;1.40;;;28.50;47.80;;;;;;5107152;28;20493;-80
2022/08/27 07:37:36;;;;;;;4.07;1.57;;;28.50;47.80;;;;;;5098660;28;20478;-81
2022/08/27 07:40:04;;;;;;;6.57;1.90;;;28.50;47.70;;;;;;5096934;28;20422;-81
2022/08/27 07:45:18;;;;;;;2.83;1.70;;;28.60;47.40;;;;;;5096379;28;20443;-82
2022/08/27 07:47:48;;;;;;;5.37;1.30;;;28.60;47.10;;;;;;5095676;28;20410;-82
2022/08/27 07:50:17;;;;;;;5.97;2.13;;;28.60;46.90;;;;;;5095776;28;20448;-81
2022/08/27 07:52:45;;;;;;;4.40;1.87;;;28.60;46.80;;;;;;5095046;28;20505;-82
2022/08/27 07:55:13;;;;;;;3.40;1.50;;;28.70;46.90;;;;;;5095428;28;20886;-82
2022/08/27 07:57:43;;;;;;;6.87;2.13;;;28.70;46.60;;;;;;5092588;28;20559;-82
2022/08/27 08:00:11;;;;;;;5.00;1.80;;;28.80;46.50;;;;;;5090464;28;20417;-82
2022/08/27 08:02:40;;;;;;;5.23;1.90;;;28.90;46.30;;;;;;5094429;28;21026;-82
2022/08/27 08:05:11;;;;;;;3.70;1.50;;;28.90;46.20;;;;;;5091905;28;20561;-82
2022/08/27 08:07:39;;;;;;;4.13;1.70;;;28.90;46.00;;;;;;5094460;28;20515;-82
2022/08/27 08:10:08;;;;;;;6.70;1.80;;;28.90;46.00;;;;;;5104006;28;20475;-82
2022/08/27 08:12:36;;;;;;;3.50;1.53;;;29.00;46.00;;;;;;5113416;28;20416;-80
2022/08/27 08:15:05;;;;;;;7.70;2.30;;;29.00;45.80;;;;;;5095648;27;20555;-81
2022/08/27 08:17:33;;;;;;;4.67;1.77;;;29.10;45.60;;;;;;5097001;28;20474;-82
2022/08/27 08:20:01;;;;;;;6.50;2.20;;;29.20;45.70;;;;;;5095692;28;20445;-81
2022/08/27 08:22:50;;;;;;;3.33;1.70;;;29.30;45.90;;;;;;5095971;28;20433;-80
2022/08/27 08:25:18;;;;;;;4.53;1.87;;;29.40;45.10;;;;;;5103529;28;20993;-82
2022/08/27 08:27:46;;;;;;;3.77;1.80;;;29.40;45.00;;;;;;5102499;28;20409;-79
2022/08/27 08:30:16;;;;;;;4.43;2.17;;;29.50;45.00;;;;;;5101610;28;20444;-82
2022/08/27 08:32:44;;;;;;;4.73;1.90;;;29.50;45.00;;;;;;5095849;28;20450;-82
2022/08/27 08:35:12;;;;;;;5.50;2.00;;;29.60;45.20;;;;;;5095435;28;20491;-82
2022/08/27 08:37:41;;;;;;;4.13;1.57;;;29.60;45.10;;;;;;5097135;28;20439;-82
2022/08/27 08:40:14;;;;;;;4.80;2.00;;;29.70;45.00;;;;;;5092510;28;20476;-82
2022/08/27 08:42:44;;;;;;;4.70;1.50;;;29.70;44.90;;;;;;5075941;28;20492;-83
2022/08/27 08:45:18;;;;;;;4.27;1.80;;;29.70;44.80;;;;;;5074788;28;20472;-82
2022/08/27 08:47:48;;;;;;;4.00;1.87;;;29.80;44.90;;;;;;5080406;28;20913;-83
2022/08/27 08:50:18;;;;;;;5.50;1.93;;;29.80;44.60;;;;;;5111551;28;20485;-82
2022/08/27 08:52:50;;;;;;;6.47;1.93;;;29.90;44.60;;;;;;5109718;28;20440;-81
2022/08/27 08:55:35;;;;;;;5.53;1.83;;;29.80;44.60;;;;;;5119980;27;20493;-82
2022/08/27 08:58:20;;;;;;;3.07;1.63;;;29.80;44.60;;;;;;5097638;28;20538;-82
2022/08/27 09:00:53;;;;;;;5.17;1.90;;;29.80;44.70;;;;;;5083753;28;20448;-81
2022/08/27 09:03:21;;;;;;;5.13;1.70;;;29.90;44.80;;;;;;5081479;28;20422;-83
2022/08/27 09:05:53;;;;;;;2.87;1.80;;;29.90;45.40;;;;;;5082157;28;20503;-83
2022/08/27 09:08:23;;;;;;;4.30;1.80;;;30.00;44.80;;;;;;5081493;28;20443;-84
2022/08/27 09:11:08;;;;;;;6.43;2.00;;;30.00;44.70;;;;;;5080005;28;20445;-83
2022/08/27 09:13:38;;;;;;;3.90;1.77;;;30.00;44.70;;;;;;5078933;28;20521;-84
2022/08/27 09:16:06;;;;;;;4.73;2.00;;;30.00;44.80;;;;;;5095375;28;20480;-81
2022/08/27 09:18:36;;;;;;;10.67;1.87;;;30.00;45.10;;;;;;5098266;28;20540;-81
2022/08/27 09:21:09;;;;;;;4.20;1.77;;;30.00;44.80;;;;;;5098558;28;20451;-81
2022/08/27 09:23:40;;;;;;;4.70;1.73;;;30.10;44.90;;;;;;5098814;28;20416;-80
2022/08/27 09:26:23;;;;;;;11.33;1.90;;;30.10;44.90;;;;;;5098871;28;20480;-81
2022/08/27 09:31:42;;;;;;;6.63;1.97;;;30.20;44.80;;;;;;5089969;28;20520;-80
2022/08/27 09:34:10;;;;;;;14.27;2.37;;;30.20;44.80;;;;;;5101148;28;20536;-80
2022/08/27 09:36:51;;;;;;;9.13;1.90;;;30.20;44.90;;;;;;5097372;28;20450;-81
2022/08/27 09:39:19;;;;;;;10.90;2.20;;;30.20;45.00;;;;;;5099558;28;20446;-81
2022/08/27 09:41:51;;;;;;;8.10;1.97;;;30.20;45.00;;;;;;5099833;28;20451;-79
2022/08/27 09:44:21;;;;;;;16.93;2.40;;;30.20;44.80;;;;;;5099206;28;20540;-80
2022/08/27 09:46:54;;;;;;;9.60;2.30;;;30.20;44.90;;;;;;5098510;28;20500;-81
2022/08/27 09:49:22;;;;;;;15.60;2.40;;;30.20;44.90;;;;;;5097245;28;20639;-80
2022/08/27 09:51:51;;;;;;;12.43;2.20;;;30.20;45.00;;;;;;5100128;28;20444;-81
2022/08/27 09:54:31;;;;;;;8.00;2.10;;;30.10;45.00;;;;;;5099967;28;20494;-81
2022/08/27 09:57:01;;;;;;;9.37;2.10;;;30.10;45.00;;;;;;5100554;28;20419;-81
2022/08/27 09:59:31;;;;;;;12.13;2.50;;;30.10;45.10;;;;;;5100148;28;20436;-81
2022/08/27 10:02:03;;;;;;;11.90;2.30;;;30.10;45.20;;;;;;5097927;28;20480;-79
2022/08/27 10:04:39;;;;;;;19.90;2.67;;;30.20;45.20;;;;;;5098602;28;20431;-80
2022/08/27 10:07:22;;;;;;;10.20;2.00;;;30.20;45.00;;;;;;5102208;28;20444;-81
2022/08/27 10:09:53;;;;;;;13.70;2.23;;;30.30;45.00;;;;;;5104654;28;20445;-80
2022/08/27 10:12:24;;;;;;;6.50;2.17;;;30.40;45.00;;;;;;5100000;28;20513;-79
2022/08/27 10:14:54;;;;;;;7.30;2.20;;;30.40;45.40;;;;;;5091127;28;20513;-79
2022/08/27 10:17:25;;;;;;;16.00;2.80;;;30.30;44.80;;;;;;5120150;27;20435;-78
2022/08/27 10:19:58;;;;;;;14.87;2.10;;;30.20;44.50;;;;;;5122599;27;20410;-78
2022/08/27 10:22:34;;;;;;;11.03;1.87;;;30.10;44.00;;;;;;5123421;27;20461;-79
2022/08/27 10:25:17;;;;;;;16.33;1.77;;;29.70;43.10;;;;;;5101140;27;20475;-81
2022/08/27 10:27:53;;;;;;;6.10;1.80;;;29.60;43.30;;;;;;5103212;28;20447;-79
2022/08/27 10:30:35;;;;;;;3.37;1.27;;;29.40;42.90;;;;;;5103408;28;20456;-79
2022/08/27 10:33:05;;;;;;;4.87;1.40;;;29.50;42.90;;;;;;5103911;28;20440;-79
2022/08/27 10:35:41;;;;;;;8.53;1.90;;;29.60;42.50;;;;;;5102930;28;20446;-79
2022/08/27 10:38:22;;;;;;;8.57;1.80;;;29.70;42.20;;;;;;5102829;28;20447;-79
2022/08/27 10:40:53;;;;;;;5.23;1.20;;;29.70;41.50;;;;;;5104062;28;20449;-79
2022/08/27 10:43:36;;;;;;;10.13;2.17;;;29.60;41.90;;;;;;5081272;28;20492;-79
2022/08/27 10:46:06;;;;;;;11.60;2.20;;;29.60;42.30;;;;;;5076937;28;20462;-80
2022/08/27 10:48:38;;;;;;;7.20;2.10;;;29.70;42.50;;;;;;5076709;28;20434;-79
2022/08/27 10:51:14;;;;;;;7.70;2.00;;;29.60;42.00;;;;;;5083699;28;20472;-79
2022/08/27 10:53:47;;;;;;;3.97;1.90;;;29.50;41.60;;;;;;5097353;28;20510;-80
2022/08/27 10:56:19;;;;;;;20.00;12.47;;;29.80;42.00;;;;;;5097685;28;20437;-80
2022/08/27 10:59:06;;;;;;;5.40;2.30;;;30.10;41.30;;;;;;5092577;28;20532;-79
2022/08/27 11:01:42;;;;;;;5.83;2.10;;;30.20;41.10;;;;;;5087689;28;20482;-78
2022/08/27 11:04:13;;;;;;;7.40;1.63;;;30.30;41.00;;;;;;5098782;28;20468;-81
2022/08/27 11:06:46;;;;;;;15.20;2.50;;;30.20;40.90;;;;;;5103882;28;20475;-82
2022/08/27 11:09:17;;;;;;;6.53;1.57;;;30.30;40.30;;;;;;5102658;28;20465;-79
2022/08/27 11:11:47;;;;;;;6.20;1.73;;;30.40;39.90;;;;;;5107733;28;20421;-79
2022/08/27 11:14:41;;;;;;;4.50;1.67;;;30.60;38.70;;;;;;5101962;28;20457;-80
2022/08/27 11:17:10;;;;;;;3.53;1.40;;;30.50;38.30;;;;;;5085722;28;20448;-79
2022/08/27 11:19:44;;;;;;;4.67;1.73;;;30.90;37.60;;;;;;5081467;28;20449;-79
2022/08/27 11:22:15;;;;;;;4.00;1.50;;;31.20;36.90;;;;;;5081261;28;20438;-79
2022/08/27 11:24:55;;;;;;;6.57;1.70;;;30.90;37.20;;;;;;5079160;28;20522;-79
2022/08/27 11:27:27;;;;;;;4.00;1.50;;;30.60;38.20;;;;;;5076449;28;20500;-79
2022/08/27 11:29:58;;;;;;;2.10;1.63;;;30.40;38.60;;;;;;5078223;28;20552;-79
2022/08/27 11:32:30;;;;;;;5.97;1.83;;;30.20;38.80;;;;;;5077967;28;20450;-78
2022/08/27 11:34:59;;;;;;;2.67;1.23;;;30.20;39.40;;;;;;5089831;28;20467;-78
2022/08/27 11:37:38;;;;;;;6.63;1.37;;;30.20;38.80;;;;;;5097437;28;20468;-78
2022/08/27 11:40:17;;;;;;;2.30;1.50;;;29.90;39.00;;;;;;5099299;28;20467;-77
2022/08/27 11:42:50;;;;;;;5.50;2.00;;;29.70;39.10;;;;;;5097082;28;20416;-79
2022/08/27 11:45:28;;;;;;;5.70;1.93;;;29.60;39.40;;;;;;5097411;28;20522;-78
2022/08/27 11:47:57;;;;;;;4.10;1.73;;;29.70;39.50;;;;;;5093715;28;20467;-77
2022/08/27 11:50:26;;;;;;;5.50;1.73;;;29.70;38.90;;;;;;5091131;28;20449;-77
2022/08/27 11:52:56;;;;;;;3.43;1.57;;;29.50;39.10;;;;;;5098410;28;20450;-78
2022/08/27 11:55:26;;;;;;;5.07;1.57;;;29.50;39.30;;;;;;5107022;28;20486;-77
2022/08/27 11:58:07;;;;;;;3.67;1.43;;;29.80;39.00;;;;;;5105518;28;20412;-79
2022/08/27 12:00:37;;;;;;;9.10;1.87;;;30.10;38.70;;;;;;5099596;28;20441;-79
2022/08/27 12:03:08;;;;;;;7.03;1.70;;;30.20;38.70;;;;;;5102556;28;20441;-82
2022/08/27 12:05:50;;;;;;;7.73;2.00;;;30.10;38.30;;;;;;5101195;28;20478;-82
2022/08/27 12:08:29;;;;;;;5.17;2.03;;;30.00;38.70;;;;;;5098303;28;20449;-82
2022/08/27 12:11:07;;;;;;;4.80;1.60;;;30.10;38.70;;;;;;5096179;28;20468;-82
2022/08/27 12:13:39;;;;;;;3.53;1.67;;;30.20;38.60;;;;;;5099128;28;20436;-81
2022/08/27 12:16:15;;;;;;;5.47;1.47;;;30.50;38.20;;;;;;5096839;28;20510;-81
2022/08/27 12:18:49;;;;;;;4.80;1.30;;;30.70;37.90;;;;;;5100123;28;20440;-82
2022/08/27 12:21:23;;;;;;;5.37;1.40;;;30.80;37.60;;;;;;5108849;28;20435;-83
2022/08/27 12:24:03;;;;;;;2.50;1.47;;;30.90;37.70;;;;;;5084753;28;20558;-84
2022/08/27 12:26:33;;;;;;;5.43;1.50;;;30.90;37.30;;;;;;5099508;28;20495;-84
2022/08/27 12:29:30;;;;;;;2.00;1.30;;;31.00;37.60;;;;;;5098137;28;20441;-82
2022/08/27 12:35:20;;;;;;;5.07;1.63;;;31.00;37.70;;;;;;5077511;28;20857;-79
2022/08/27 12:37:50;;;;;;;8.20;1.83;;;31.00;37.30;;;;;;5093215;28;20477;-78
2022/08/27 12:40:26;;;;;;;3.30;1.20;;;30.90;37.10;;;;;;5087480;28;20434;-78
2022/08/27 12:43:04;;;;;;;12.93;1.93;;;30.40;37.50;;;;;;5096152;28;20449;-76
2022/08/27 12:45:32;;;;;;;7.20;1.83;;;29.90;38.40;;;;;;5093559;28;20530;-79
2022/08/27 12:48:02;;;;;;;20.57;2.80;;;29.80;38.80;;;;;;5097597;28;20527;-82
2022/08/27 12:50:31;;;;;;;10.53;1.70;;;30.00;39.10;;;;;;5099250;28;20474;-81
2022/08/27 12:53:20;;;;;;;17.93;2.17;;;30.50;39.30;;;;;;5098646;28;20468;-80
2022/08/27 12:55:56;;;;;;;8.40;1.70;;;31.00;38.30;;;;;;5077044;28;20541;-81
2022/08/27 12:58:28;;;;;;;8.63;2.10;;;31.50;38.20;;;;;;5077678;28;20427;-81
2022/08/27 13:01:03;;;;;;;8.80;1.83;;;31.70;36.90;;;;;;5095485;28;20429;-81
2022/08/27 13:03:37;;;;;;;7.80;1.97;;;31.60;36.50;;;;;;5099516;28;20440;-81
2022/08/27 13:06:14;;;;;;;14.73;1.70;;;31.50;36.50;;;;;;5096574;28;20552;-81
2022/08/27 13:08:42;;;;;;;6.53;1.80;;;31.60;36.30;;;;;;5095674;28;20522;-81
2022/08/27 13:11:16;;;;;;;7.50;1.83;;;31.70;36.40;;;;;;5107400;28;20487;-81
2022/08/27 13:13:45;;;;;;;5.63;1.67;;;31.70;36.00;;;;;;5102676;28;20436;-81
2022/08/27 13:16:13;;;;;;;2.17;1.30;;;31.90;36.00;;;;;;5091032;28;20457;-80
2022/08/27 13:18:46;;;;;;;5.00;1.43;;;32.00;34.90;;;;;;5087027;28;20498;-81
2022/08/27 13:21:21;;;;;;;5.63;1.53;;;31.70;35.10;;;;;;5096123;28;20436;-79
2022/08/27 13:23:53;;;;;;;5.27;1.37;;;31.50;35.30;;;;;;5089452;28;20540;-81
2022/08/27 13:26:22;;;;;;;3.20;1.60;;;31.30;35.80;;;;;;5076216;28;20466;-82
2022/08/27 13:28:50;;;;;;;5.83;1.63;;;31.50;35.80;;;;;;5078372;28;20514;-81